createdAt,value
2018-05-15T00:01:26.436Z,101294.51
2018-05-15T00:04:28.499Z,101288.75
2018-05-15T00:07:30.660Z,101282.65
2018-05-15T00:10:32.801Z,101274.37
2018-05-15T00:13:34.903Z,101270.85
2018-05-15T00:16:36.972Z,101268.47
2018-05-15T00:19:39.128Z,101267.28
2018-05-15T00:22:41.224Z,101278.73
2018-05-15T00:25:43.286Z,101274.81
2018-05-15T00:28:45.303Z,101274.91
2018-05-15T00:31:47.409Z,101277.14
2018-05-15T00:34:50.577Z,101273.39
2018-05-15T00:37:52.737Z,101265.56
2018-05-15T00:40:55.049Z,101270.46
2018-05-15T00:43:57.170Z,101269.42
2018-05-15T00:46:59.317Z,101269.09
2018-05-15T00:50:01.476Z,101269.24
2018-05-15T00:53:03.511Z,101269.26
2018-05-15T00:56:05.604Z,101268.88
2018-05-15T00:59:07.683Z,101266.43
2018-05-15T01:02:09.774Z,101265.63
2018-05-15T01:05:11.906Z,101270.25
2018-05-15T01:08:13.981Z,101273.75
2018-05-15T01:11:16.155Z,101274.67
2018-05-15T01:14:18.213Z,101273.25
2018-05-15T01:17:21.207Z,101266.11
2018-05-15T01:20:23.371Z,101266.69
2018-05-15T01:23:25.450Z,101262.35
2018-05-15T01:26:27.514Z,101253.53
2018-05-15T01:29:29.599Z,101252.41
2018-05-15T01:32:31.682Z,101256.08
2018-05-15T01:35:33.858Z,101254.80
2018-05-15T01:38:35.900Z,101256.26
2018-05-15T01:41:37.976Z,101256.15
2018-05-15T01:44:40.130Z,101263.14
2018-05-15T01:47:42.239Z,101263.55
2018-05-15T01:50:44.387Z,101264.46
2018-05-15T01:53:46.449Z,101263.01
2018-05-15T01:56:48.595Z,101260.66
2018-05-15T01:59:51.500Z,101261.35
2018-05-15T02:02:53.564Z,101263.62
2018-05-15T02:05:57.705Z,101264.07
2018-05-15T02:08:59.735Z,101273.05
2018-05-15T02:12:01.847Z,101272.82
2018-05-15T02:15:03.976Z,101271.62
2018-05-15T02:18:06.044Z,101276.76
2018-05-15T02:21:08.255Z,101272.13
2018-05-15T02:24:10.420Z,101270.78
2018-05-15T02:27:12.492Z,101270.55
2018-05-15T02:30:14.457Z,101268.10
2018-05-15T02:33:16.496Z,101270.87
2018-05-15T02:36:18.684Z,101272.56
2018-05-15T02:39:21.407Z,101277.55
2018-05-15T02:42:24.039Z,101268.72
2018-05-15T02:45:26.025Z,101276.16
2018-05-15T02:48:28.171Z,101277.16
2018-05-15T02:51:30.262Z,101279.67
2018-05-15T02:54:32.296Z,101279.02
2018-05-15T02:57:34.385Z,101280.36
2018-05-15T03:00:36.470Z,101273.06
2018-05-15T03:03:38.615Z,101275.42
2018-05-15T03:06:40.692Z,101271.89
2018-05-15T03:09:42.861Z,101274.28
2018-05-15T03:12:44.957Z,101275.30
2018-05-15T03:15:48.141Z,101279.06
2018-05-15T03:18:50.231Z,101287.40
2018-05-15T03:21:59.153Z,101283.45
2018-05-15T03:25:01.299Z,101284.02
2018-05-15T03:28:03.832Z,101282.19
2018-05-15T03:31:06.404Z,101285.29
2018-05-15T03:34:08.851Z,101290.07
2018-05-15T03:37:11.234Z,101296.25
2018-05-15T03:40:14.402Z,101308.80
2018-05-15T03:43:17.947Z,101311.53
2018-05-15T03:46:20.584Z,101322.90
2018-05-15T03:49:22.975Z,101328.18
2018-05-15T03:52:25.126Z,101334.32
2018-05-15T03:55:27.177Z,101340.11
2018-05-15T03:58:29.287Z,101341.77
2018-05-15T04:01:42.964Z,101351.18
2018-05-15T04:05:56.181Z,101348.88
2018-05-15T04:08:58.318Z,101350.72
2018-05-15T04:12:00.359Z,101358.06
2018-05-15T04:15:02.528Z,101356.52
2018-05-15T04:18:04.684Z,101364.46
2018-05-15T04:21:06.656Z,101361.25
2018-05-15T04:24:09.823Z,101363.56
2018-05-15T04:27:11.972Z,101362.21
2018-05-15T04:30:14.072Z,101372.64
2018-05-15T04:33:16.299Z,101364.78
2018-05-15T04:36:18.363Z,101371.17
2018-05-15T04:39:20.504Z,101372.30
2018-05-15T04:42:23.669Z,101381.36
2018-05-15T04:45:25.817Z,101385.70
2018-05-15T04:48:27.903Z,101383.85
2018-05-15T04:51:29.895Z,101385.16
2018-05-15T04:54:32.009Z,101386.16
2018-05-15T04:57:34.059Z,101388.24
2018-05-15T05:00:36.192Z,101395.56
2018-05-15T05:03:38.285Z,101399.14
2018-05-15T05:06:40.394Z,101397.47
2018-05-15T05:09:46.350Z,101399.87
2018-05-15T05:12:49.863Z,101402.82
2018-05-15T05:15:53.099Z,101397.63
2018-05-15T05:18:55.622Z,101411.03
2018-05-15T05:21:58.124Z,101413.47
2018-05-15T05:25:00.620Z,101413.73
2018-05-15T05:28:03.090Z,101418.34
2018-05-15T05:31:05.139Z,101421.90
2018-05-15T05:34:13.159Z,101422.01
2018-05-15T05:37:15.718Z,101426.58
2018-05-15T05:40:18.653Z,101424.86
2018-05-15T05:43:20.747Z,101433.29
2018-05-15T05:46:23.382Z,101436.35
2018-05-15T05:49:25.837Z,101447.48
2018-05-15T05:52:28.268Z,101448.94
2018-05-15T05:55:30.813Z,101457.90
2018-05-15T05:58:33.299Z,101455.30
2018-05-15T06:01:35.255Z,101458.63
2018-05-15T06:04:37.286Z,101460.11
2018-05-15T06:07:39.882Z,101461.80
2018-05-15T06:10:42.392Z,101465.03
2018-05-15T06:13:44.963Z,101466.05
2018-05-15T06:16:47.468Z,101467.27
2018-05-15T06:19:50.940Z,101467.84
2018-05-15T06:22:53.438Z,101468.38
2018-05-15T06:25:55.987Z,101473.80
2018-05-15T06:28:59.499Z,101477.00
2018-05-15T06:32:02.068Z,101481.53
2018-05-15T06:35:04.487Z,101480.30
2018-05-15T06:38:08.064Z,101482.71
2018-05-15T06:41:10.593Z,101488.73
2018-05-15T06:44:12.615Z,101487.75
2018-05-15T06:47:15.107Z,101486.85
2018-05-15T06:50:17.171Z,101489.44
2018-05-15T06:53:19.659Z,101495.40
2018-05-15T06:56:22.214Z,101494.59
2018-05-15T06:59:24.563Z,101495.35
2018-05-15T07:02:27.070Z,101505.50
2018-05-15T07:05:29.241Z,101497.36
2018-05-15T07:08:31.719Z,101501.16
2018-05-15T07:11:34.294Z,101506.60
2018-05-15T07:14:36.819Z,101509.92
2018-05-15T07:17:39.335Z,101507.90
2018-05-15T07:20:41.853Z,101509.76
2018-05-15T07:23:44.429Z,101513.13
2018-05-15T07:26:46.821Z,101508.34
2018-05-15T07:29:50.320Z,101513.79
2018-05-15T07:32:52.444Z,101514.96
2018-05-15T07:35:54.907Z,101507.43
2018-05-15T07:38:57.456Z,101509.14
2018-05-15T07:41:59.459Z,101509.16
2018-05-15T07:45:01.972Z,101510.35
2018-05-15T07:48:04.508Z,101512.60
2018-05-15T07:51:06.944Z,101512.04
2018-05-15T07:54:09.065Z,101510.58
2018-05-15T07:57:11.067Z,101514.57
2018-05-15T08:00:13.587Z,101515.90
2018-05-15T08:03:15.601Z,101512.90
2018-05-15T08:06:18.113Z,101509.86
2018-05-15T08:09:22.051Z,101508.45
2018-05-15T08:12:24.113Z,101512.66
2018-05-15T08:15:27.068Z,101510.99
2018-05-15T08:18:29.736Z,101515.25
2018-05-15T08:21:32.179Z,101512.34
2018-05-15T08:24:34.724Z,101515.73
2018-05-15T08:27:36.783Z,101521.04
2018-05-15T08:30:39.255Z,101524.87
2018-05-15T08:33:41.288Z,101526.02
2018-05-15T08:36:43.835Z,101526.63
2018-05-15T08:39:45.857Z,101523.97
2018-05-15T08:42:48.384Z,101529.58
2018-05-15T08:45:51.160Z,101529.49
2018-05-15T08:48:54.415Z,101523.74
2018-05-15T08:51:56.929Z,101525.16
2018-05-15T08:54:59.521Z,101525.43
2018-05-15T08:58:01.959Z,101521.09
2018-05-15T09:01:03.992Z,101519.99
2018-05-15T09:04:06.195Z,101520.73
2018-05-15T09:07:08.356Z,101512.83
2018-05-15T09:10:10.591Z,101512.03
2018-05-15T09:13:12.780Z,101511.50
2018-05-15T09:16:14.946Z,101509.91
2018-05-15T09:19:17.119Z,101507.61
2018-05-15T09:22:20.297Z,101503.26
2018-05-15T09:25:22.474Z,101504.43
2018-05-15T09:28:24.652Z,101501.15
2018-05-15T09:31:26.656Z,101501.05
2018-05-15T09:34:29.781Z,101506.51
2018-05-15T09:37:31.850Z,101492.90
2018-05-15T09:40:34.063Z,101494.15
2018-05-15T09:43:45.246Z,101497.19
2018-05-15T09:46:47.361Z,101500.96
2018-05-15T09:49:50.911Z,101503.43
2018-05-15T09:52:52.968Z,101500.10
2018-05-15T09:55:55.001Z,101495.12
2018-05-15T09:58:57.307Z,101496.00
2018-05-15T10:01:59.597Z,101496.19
2018-05-15T10:05:01.593Z,101504.27
2018-05-15T10:08:03.798Z,101506.28
2018-05-15T10:11:05.839Z,101505.62
2018-05-15T10:14:07.884Z,101501.41
2018-05-15T10:17:10.017Z,101498.21
2018-05-15T10:20:12.164Z,101498.55
2018-05-15T10:23:14.254Z,101493.22
2018-05-15T10:26:16.438Z,101488.66
2018-05-15T10:29:18.536Z,101495.60
2018-05-15T10:32:20.754Z,101488.18
2018-05-15T10:35:22.803Z,101488.27
2018-05-15T10:38:24.804Z,101487.83
2018-05-15T10:41:26.879Z,101489.24
2018-05-15T10:44:28.959Z,101488.66
2018-05-15T10:47:31.096Z,101491.85
2018-05-15T10:50:33.149Z,101489.73
2018-05-15T10:53:36.303Z,101482.86
2018-05-15T10:56:38.396Z,101490.71
2018-05-15T10:59:40.547Z,101484.88
2018-05-15T11:02:42.449Z,101479.33
2018-05-15T11:05:44.638Z,101474.89
2018-05-15T11:08:47.091Z,101469.49
2018-05-15T11:11:49.008Z,101470.51
2018-05-15T11:14:51.997Z,101470.90
2018-05-15T11:17:54.195Z,101467.74
2018-05-15T11:21:07.845Z,101468.34
2018-05-15T11:24:21.911Z,101460.98
2018-05-15T11:27:23.953Z,101456.05
2018-05-15T11:33:27.510Z,101456.15
2018-05-15T11:36:29.603Z,101457.78
2018-05-15T11:39:31.810Z,101447.52
2018-05-15T11:42:33.811Z,101443.93
2018-05-15T11:45:35.887Z,101437.13
2018-05-15T11:48:38.422Z,101440.19
2018-05-15T11:51:40.559Z,101436.01
2018-05-15T11:54:41.995Z,101439.43
2018-05-15T11:57:45.127Z,101433.61
2018-05-15T12:00:47.266Z,101438.03
2018-05-15T12:03:49.412Z,101434.96
2018-05-15T12:06:51.485Z,101430.49
2018-05-15T12:09:53.559Z,101433.10
2018-05-15T12:12:55.903Z,101431.79
2018-05-15T12:15:57.913Z,101426.30
2018-05-15T12:18:59.987Z,101417.70
2018-05-15T12:22:02.054Z,101415.11
2018-05-15T12:25:04.101Z,101408.30
2018-05-15T12:28:06.285Z,101415.60
2018-05-15T12:31:08.238Z,101412.24
2018-05-15T12:34:10.306Z,101413.21
2018-05-15T12:37:12.488Z,101405.82
2018-05-15T12:40:14.595Z,101404.49
2018-05-15T12:43:16.750Z,101401.53
2018-05-15T12:46:18.894Z,101402.79
2018-05-15T12:49:20.948Z,101400.38
2018-05-15T12:52:23.040Z,101403.27
2018-05-15T12:55:25.279Z,101395.50
2018-05-15T12:58:28.019Z,101394.20
2018-05-15T13:01:30.038Z,101394.12
2018-05-15T13:04:32.128Z,101393.47
2018-05-15T13:07:34.215Z,101390.58
2018-05-15T13:10:37.129Z,101391.36
2018-05-15T13:13:39.291Z,101393.73
2018-05-15T13:16:41.416Z,101387.83
2018-05-15T13:19:43.484Z,101386.92
2018-05-15T13:22:45.567Z,101381.07
2018-05-15T13:25:47.713Z,101384.74
2018-05-15T13:28:49.887Z,101378.20
2018-05-15T13:31:52.054Z,101374.88
2018-05-15T13:34:54.252Z,101370.45
2018-05-15T13:37:57.036Z,101366.25
2018-05-15T13:40:59.210Z,101357.88
2018-05-15T13:44:01.584Z,101356.85
2018-05-15T13:47:03.766Z,101355.16
2018-05-15T13:50:05.918Z,101357.15
2018-05-15T13:53:08.109Z,101363.38
2018-05-15T13:56:10.211Z,101357.81
2018-05-15T13:59:12.428Z,101366.96
2018-05-15T14:02:14.376Z,101356.42
2018-05-15T14:05:18.495Z,101359.33
2018-05-15T14:08:20.559Z,101358.32
2018-05-15T14:11:23.655Z,101362.38
2018-05-15T14:14:25.742Z,101364.11
2018-05-15T14:17:27.925Z,101372.95
2018-05-15T14:20:29.984Z,101374.50
2018-05-15T14:23:32.168Z,101374.93
2018-05-15T14:26:34.243Z,101379.12
2018-05-15T14:29:36.372Z,101377.16
2018-05-15T14:32:38.561Z,101373.69
2018-05-15T14:35:41.788Z,101374.10
2018-05-15T14:38:43.841Z,101374.24
2018-05-15T14:41:55.415Z,101369.26
2018-05-15T14:44:59.536Z,101362.90
2018-05-15T14:48:01.671Z,101356.32
2018-05-15T14:51:26.788Z,101358.12
2018-05-15T14:54:28.876Z,101360.03
2018-05-15T14:57:31.156Z,101366.08
2018-05-15T15:00:34.356Z,101362.07
2018-05-15T15:03:36.453Z,101361.64
2018-05-15T15:06:38.605Z,101364.81
2018-05-15T15:09:40.663Z,101365.53
2018-05-15T15:12:42.730Z,101367.94
2018-05-15T15:15:44.804Z,101363.47
2018-05-15T15:18:47.910Z,101369.16
2018-05-15T15:21:50.084Z,101371.76
2018-05-15T15:24:52.310Z,101383.84
2018-05-15T15:27:54.457Z,101396.66
2018-05-15T15:30:56.580Z,101402.81
2018-05-15T15:33:58.647Z,101419.20
2018-05-15T15:37:00.824Z,101412.61
2018-05-15T15:40:03.113Z,101387.55
2018-05-15T15:43:05.055Z,101388.66
2018-05-15T15:46:07.144Z,101396.51
2018-05-15T15:49:09.372Z,101419.18
2018-05-15T15:52:11.708Z,101436.98
2018-05-15T15:55:13.728Z,101440.89
2018-05-15T15:58:15.747Z,101445.63
2018-05-15T16:01:19.239Z,101477.68
2018-05-15T16:04:21.251Z,101503.80
2018-05-15T16:07:23.373Z,101483.04
2018-05-15T16:10:25.409Z,101446.74
2018-05-15T16:13:27.591Z,101438.56
2018-05-15T16:16:29.642Z,101428.29
2018-05-15T16:19:31.700Z,101422.05
2018-05-15T16:22:33.786Z,101416.76
2018-05-15T16:25:35.849Z,101409.99
2018-05-15T16:28:38.001Z,101407.81
2018-05-15T16:31:40.078Z,101404.71
2018-05-15T16:34:42.143Z,101409.44
2018-05-15T16:37:44.333Z,101398.85
2018-05-15T16:40:46.353Z,101405.12
2018-05-15T16:43:49.439Z,101417.53
2018-05-15T16:46:51.980Z,101432.70
2018-05-15T16:49:54.200Z,101415.33
2018-05-15T16:52:56.286Z,101414.08
2018-05-15T16:55:58.411Z,101398.48
2018-05-15T16:59:00.451Z,101402.97
2018-05-15T17:02:02.533Z,101402.82
2018-05-15T17:05:04.576Z,101404.76
2018-05-15T17:08:06.726Z,101405.91
2018-05-15T17:11:08.859Z,101411.94
2018-05-15T17:14:12.960Z,101415.83
2018-05-15T17:17:16.192Z,101415.71
2018-05-15T17:20:19.030Z,101413.31
2018-05-15T17:23:21.095Z,101416.56
2018-05-15T17:26:23.248Z,101428.52
2018-05-15T17:29:32.832Z,101439.54
2018-05-15T17:32:35.011Z,101458.59
2018-05-15T17:35:37.151Z,101465.56
2018-05-15T17:38:41.180Z,101467.08
2018-05-15T17:41:43.194Z,101470.88
2018-05-15T17:44:45.397Z,101477.77
2018-05-15T17:47:47.632Z,101476.90
2018-05-15T17:50:50.532Z,101473.86
2018-05-15T17:53:52.639Z,101480.07
2018-05-15T17:56:54.881Z,101478.31
2018-05-15T17:59:57.120Z,101485.86
2018-05-15T18:02:59.148Z,101488.43
2018-05-15T18:06:01.229Z,101488.10
2018-05-15T18:09:03.800Z,101483.62
2018-05-15T18:12:05.876Z,101482.76
2018-05-15T18:15:08.091Z,101489.68
2018-05-15T18:18:16.580Z,101486.45
2018-05-15T18:21:18.761Z,101485.95
2018-05-15T18:24:20.824Z,101480.41
2018-05-15T18:27:22.920Z,101483.09
2018-05-15T18:30:24.903Z,101488.82
2018-05-15T18:33:28.208Z,101485.22
2018-05-15T18:36:30.304Z,101495.06
2018-05-15T18:39:32.469Z,101502.93
2018-05-15T18:42:34.607Z,101507.53
2018-05-15T18:45:36.714Z,101502.81
2018-05-15T18:48:38.784Z,101506.63
2018-05-15T18:51:40.882Z,101510.58
2018-05-15T18:54:43.007Z,101519.65
2018-05-15T18:57:45.272Z,101518.08
2018-05-15T19:00:47.569Z,101524.60
2018-05-15T19:03:49.549Z,101526.37
2018-05-15T19:06:51.754Z,101528.51
2018-05-15T19:09:53.807Z,101529.17
2018-05-15T19:12:55.929Z,101529.57
2018-05-15T19:15:57.998Z,101529.08
2018-05-15T19:19:00.130Z,101537.09
2018-05-15T19:22:02.292Z,101539.02
2018-05-15T19:25:04.474Z,101545.37
2018-05-15T19:28:06.607Z,101538.69
2018-05-15T19:31:13.555Z,101542.50
2018-05-15T19:34:20.281Z,101541.78
2018-05-15T19:37:22.448Z,101552.48
2018-05-15T19:40:25.010Z,101557.00
2018-05-15T19:43:27.155Z,101560.11
2018-05-15T19:46:29.251Z,101568.15
2018-05-15T19:49:31.803Z,101577.69
2018-05-15T19:52:33.896Z,101588.42
2018-05-15T19:55:35.938Z,101592.81
2018-05-15T19:58:38.092Z,101590.49
2018-05-15T20:01:40.314Z,101593.61
2018-05-15T20:04:45.947Z,101593.12
2018-05-15T20:07:48.048Z,101596.25
2018-05-15T20:10:50.170Z,101572.88
2018-05-15T20:13:52.253Z,101576.40
2018-05-15T20:16:54.352Z,101573.28
2018-05-15T20:19:56.417Z,101571.58
2018-05-15T20:22:58.615Z,101565.13
2018-05-15T20:26:00.716Z,101555.68
2018-05-15T20:29:02.759Z,101551.22
2018-05-15T20:32:04.903Z,101577.75
2018-05-15T20:35:07.037Z,101592.25
2018-05-15T20:38:09.116Z,101584.98
2018-05-15T20:41:11.191Z,101590.45
2018-05-15T20:44:13.223Z,101593.04
2018-05-15T20:47:15.315Z,101603.15
2018-05-15T20:50:17.392Z,101606.21
2018-05-15T20:53:20.445Z,101601.81
2018-05-15T20:56:22.564Z,101594.98
2018-05-15T20:59:24.607Z,101591.47
2018-05-15T21:02:26.571Z,101597.10
2018-05-15T21:05:28.783Z,101602.35
2018-05-15T21:08:30.828Z,101602.71
2018-05-15T21:11:33.511Z,101604.30
2018-05-15T21:14:35.691Z,101602.79
2018-05-15T21:17:37.763Z,101595.72
2018-05-15T21:20:41.517Z,101585.38
2018-05-15T21:23:43.644Z,101577.17
2018-05-15T21:26:45.711Z,101575.66
2018-05-15T21:29:47.990Z,101577.21
2018-05-15T21:32:50.239Z,101574.30
2018-05-15T21:35:52.315Z,101566.57
2018-05-15T21:38:54.407Z,101569.42
2018-05-15T21:41:56.632Z,101573.48
2018-05-15T21:44:58.740Z,101576.25
2018-05-15T21:48:00.816Z,101585.70
2018-05-15T21:51:02.991Z,101599.28
2018-05-15T21:54:04.959Z,101600.01
2018-05-15T21:57:06.999Z,101594.96
2018-05-15T22:00:09.224Z,101597.28
2018-05-15T22:03:12.451Z,101598.60
2018-05-15T22:06:14.538Z,101608.96
2018-05-15T22:09:16.725Z,101611.22
2018-05-15T22:12:30.274Z,101615.58
2018-05-15T22:15:43.936Z,101613.79
2018-05-15T22:18:57.556Z,101606.31
2018-05-15T22:22:12.216Z,101611.26
2018-05-15T22:25:14.192Z,101608.12
2018-05-15T22:28:16.188Z,101606.52
2018-05-15T22:31:18.297Z,101609.52
2018-05-15T22:34:20.372Z,101605.70
2018-05-15T22:37:22.525Z,101589.83
2018-05-15T22:40:24.592Z,101579.63
2018-05-15T22:43:26.697Z,101578.43
2018-05-15T22:46:28.959Z,101580.77
2018-05-15T22:49:31.131Z,101584.50
2018-05-15T22:52:33.203Z,101581.14
2018-05-15T22:55:36.321Z,101570.58
2018-05-15T22:58:38.369Z,101570.53
2018-05-15T23:01:42.246Z,101576.06
2018-05-15T23:04:44.419Z,101584.92
2018-05-15T23:07:46.479Z,101589.51
2018-05-15T23:10:48.556Z,101588.85
2018-05-15T23:13:50.604Z,101587.76
2018-05-15T23:16:53.692Z,101579.53
2018-05-15T23:19:55.750Z,101576.83
2018-05-15T23:22:59.837Z,101571.53
2018-05-15T23:26:01.847Z,101566.68
2018-05-15T23:29:03.904Z,101569.07
2018-05-15T23:32:05.879Z,101564.52
2018-05-15T23:35:07.992Z,101563.65
2018-05-15T23:38:10.012Z,101568.01
2018-05-15T23:41:12.789Z,101569.31
2018-05-15T23:44:14.886Z,101565.99
2018-05-15T23:47:17.011Z,101563.34
2018-05-15T23:50:19.107Z,101559.07
2018-05-15T23:53:21.165Z,101560.73
2018-05-15T23:56:23.144Z,101562.99
2018-05-15T23:59:25.114Z,101568.21
